Zwingle, Iowa
Current Conditions -  °F | °C
As of 6:53 PM on Friday 28 Nov 2014 (Local Time) from KDBQ Reporting Station
Clear Clear  
Wind Chill: 28°   Ceiling: Unl
Heat Index: 28°   Visibility: 7mi
Dew Point: 25°   Wind: 3mph
Humidity: 88%   Direction: 110°ESE
Pressure: 29.85"   Gusts: NA
Location:  42.3°N, 90.69°W
Report Text: KDBQ 290053Z 11003KT 7SM CLR M02/M04 A2985 RMK AO2 SLP126 T10221039
Loading
Personal Weather Stations






























Interactive Weather Map New forecast layout! Learn more

10-Day Weather Forecast

Advertisements
Track Severe Weather on mobile